sensor_id;sensor_type;location;lat;lon;timestamp;P1;durP1;ratioP1;P2;durP2;ratioP2
15246;SDS011;7726;48.820;9.248;2022-10-16T00:02:25;6.88;;;2.17;;
15246;SDS011;7726;48.820;9.248;2022-10-16T00:04:52;2.70;;;1.98;;
15246;SDS011;7726;48.820;9.248;2022-10-16T00:07:20;4.00;;;1.80;;
15246;SDS011;7726;48.820;9.248;2022-10-16T00:09:47;4.75;;;1.83;;
15246;SDS011;7726;48.820;9.248;2022-10-16T00:12:16;3.70;;;1.83;;
15246;SDS011;7726;48.820;9.248;2022-10-16T00:14:43;2.55;;;1.70;;
15246;SDS011;7726;48.820;9.248;2022-10-16T00:17:10;2.97;;;1.83;;
15246;SDS011;7726;48.820;9.248;2022-10-16T00:19:37;1.77;;;1.67;;
15246;SDS011;7726;48.820;9.248;2022-10-16T00:22:04;3.00;;;1.60;;
15246;SDS011;7726;48.820;9.248;2022-10-16T00:24:32;3.20;;;2.00;;
15246;SDS011;7726;48.820;9.248;2022-10-16T00:26:59;1.88;;;1.70;;
15246;SDS011;7726;48.820;9.248;2022-10-16T00:29:27;3.03;;;1.98;;
15246;SDS011;7726;48.820;9.248;2022-10-16T00:31:54;1.88;;;1.75;;
15246;SDS011;7726;48.820;9.248;2022-10-16T00:34:21;1.85;;;1.67;;
15246;SDS011;7726;48.820;9.248;2022-10-16T00:36:48;2.50;;;1.52;;
15246;SDS011;7726;48.820;9.248;2022-10-16T00:39:16;5.55;;;1.75;;
15246;SDS011;7726;48.820;9.248;2022-10-16T00:41:43;2.38;;;2.00;;
15246;SDS011;7726;48.820;9.248;2022-10-16T00:46:57;2.83;;;1.70;;
15246;SDS011;7726;48.820;9.248;2022-10-16T00:49:24;3.80;;;2.28;;
15246;SDS011;7726;48.820;9.248;2022-10-16T00:51:52;3.17;;;1.85;;
15246;SDS011;7726;48.820;9.248;2022-10-16T00:54:20;3.28;;;1.70;;
15246;SDS011;7726;48.820;9.248;2022-10-16T00:56:48;2.85;;;1.90;;
15246;SDS011;7726;48.820;9.248;2022-10-16T00:59:16;5.07;;;1.80;;
15246;SDS011;7726;48.820;9.248;2022-10-16T01:01:45;2.50;;;1.80;;
15246;SDS011;7726;48.820;9.248;2022-10-16T01:04:13;1.95;;;1.75;;
15246;SDS011;7726;48.820;9.248;2022-10-16T01:06:42;3.03;;;2.30;;
15246;SDS011;7726;48.820;9.248;2022-10-16T01:09:14;3.58;;;1.92;;
15246;SDS011;7726;48.820;9.248;2022-10-16T01:11:49;5.35;;;2.25;;
15246;SDS011;7726;48.820;9.248;2022-10-16T01:14:20;3.05;;;2.00;;
15246;SDS011;7726;48.820;9.248;2022-10-16T01:16:49;6.15;;;1.80;;
15246;SDS011;7726;48.820;9.248;2022-10-16T01:19:24;5.90;;;1.90;;
15246;SDS011;7726;48.820;9.248;2022-10-16T01:21:53;5.35;;;2.28;;
15246;SDS011;7726;48.820;9.248;2022-10-16T01:24:26;3.65;;;1.98;;
15246;SDS011;7726;48.820;9.248;2022-10-16T01:27:05;3.92;;;2.08;;
15246;SDS011;7726;48.820;9.248;2022-10-16T01:29:34;3.58;;;1.65;;
15246;SDS011;7726;48.820;9.248;2022-10-16T01:32:06;2.22;;;2.00;;
15246;SDS011;7726;48.820;9.248;2022-10-16T01:34:37;2.15;;;1.90;;
15246;SDS011;7726;48.820;9.248;2022-10-16T01:37:07;3.33;;;1.70;;
15246;SDS011;7726;48.820;9.248;2022-10-16T01:39:37;6.75;;;2.03;;
15246;SDS011;7726;48.820;9.248;2022-10-16T01:42:07;4.50;;;2.10;;
15246;SDS011;7726;48.820;9.248;2022-10-16T01:44:36;2.83;;;1.80;;
15246;SDS011;7726;48.820;9.248;2022-10-16T01:47:04;2.20;;;2.00;;
15246;SDS011;7726;48.820;9.248;2022-10-16T01:49:33;2.47;;;1.73;;
15246;SDS011;7726;48.820;9.248;2022-10-16T01:52:02;4.32;;;1.80;;
15246;SDS011;7726;48.820;9.248;2022-10-16T01:54:31;2.22;;;2.03;;
15246;SDS011;7726;48.820;9.248;2022-10-16T01:57:00;2.50;;;1.88;;
15246;SDS011;7726;48.820;9.248;2022-10-16T01:59:30;4.88;;;2.05;;
15246;SDS011;7726;48.820;9.248;2022-10-16T02:01:59;2.65;;;2.00;;
15246;SDS011;7726;48.820;9.248;2022-10-16T02:04:28;3.55;;;2.17;;
15246;SDS011;7726;48.820;9.248;2022-10-16T02:06:56;7.38;;;1.80;;
15246;SDS011;7726;48.820;9.248;2022-10-16T02:09:23;2.10;;;1.90;;
15246;SDS011;7726;48.820;9.248;2022-10-16T02:11:50;3.40;;;1.90;;
15246;SDS011;7726;48.820;9.248;2022-10-16T02:14:19;3.03;;;1.90;;
15246;SDS011;7726;48.820;9.248;2022-10-16T02:16:50;4.13;;;1.88;;
15246;SDS011;7726;48.820;9.248;2022-10-16T02:19:17;7.20;;;2.20;;
15246;SDS011;7726;48.820;9.248;2022-10-16T02:21:48;1.63;;;1.52;;
15246;SDS011;7726;48.820;9.248;2022-10-16T02:24:18;3.35;;;2.05;;
15246;SDS011;7726;48.820;9.248;2022-10-16T02:26:48;4.38;;;1.85;;
15246;SDS011;7726;48.820;9.248;2022-10-16T02:29:18;3.03;;;1.88;;
15246;SDS011;7726;48.820;9.248;2022-10-16T02:31:48;3.78;;;2.08;;
15246;SDS011;7726;48.820;9.248;2022-10-16T02:34:18;2.42;;;2.22;;
15246;SDS011;7726;48.820;9.248;2022-10-16T02:36:47;5.50;;;2.10;;
15246;SDS011;7726;48.820;9.248;2022-10-16T02:39:15;3.17;;;2.08;;
15246;SDS011;7726;48.820;9.248;2022-10-16T02:41:43;2.75;;;2.35;;
15246;SDS011;7726;48.820;9.248;2022-10-16T02:44:10;1.80;;;1.70;;
15246;SDS011;7726;48.820;9.248;2022-10-16T02:46:37;2.83;;;1.98;;
15246;SDS011;7726;48.820;9.248;2022-10-16T02:49:04;6.03;;;1.90;;
15246;SDS011;7726;48.820;9.248;2022-10-16T02:51:33;2.28;;;1.80;;
15246;SDS011;7726;48.820;9.248;2022-10-16T02:54:00;5.93;;;2.00;;
15246;SDS011;7726;48.820;9.248;2022-10-16T02:56:27;2.63;;;2.42;;
15246;SDS011;7726;48.820;9.248;2022-10-16T02:58:55;5.07;;;2.13;;
15246;SDS011;7726;48.820;9.248;2022-10-16T03:01:22;3.45;;;1.90;;
15246;SDS011;7726;48.820;9.248;2022-10-16T03:03:50;4.03;;;1.73;;
15246;SDS011;7726;48.820;9.248;2022-10-16T03:06:17;1.92;;;1.65;;
15246;SDS011;7726;48.820;9.248;2022-10-16T03:08:46;3.60;;;2.10;;
15246;SDS011;7726;48.820;9.248;2022-10-16T03:11:13;3.72;;;2.03;;
15246;SDS011;7726;48.820;9.248;2022-10-16T03:13:40;3.33;;;1.98;;
15246;SDS011;7726;48.820;9.248;2022-10-16T03:16:07;2.13;;;1.83;;
15246;SDS011;7726;48.820;9.248;2022-10-16T03:18:34;3.97;;;1.65;;
15246;SDS011;7726;48.820;9.248;2022-10-16T03:21:02;5.18;;;2.10;;
15246;SDS011;7726;48.820;9.248;2022-10-16T03:23:29;2.17;;;1.95;;
15246;SDS011;7726;48.820;9.248;2022-10-16T03:25:57;4.00;;;1.70;;
15246;SDS011;7726;48.820;9.248;2022-10-16T03:28:24;5.07;;;2.13;;
15246;SDS011;7726;48.820;9.248;2022-10-16T03:30:52;2.22;;;1.90;;
15246;SDS011;7726;48.820;9.248;2022-10-16T03:33:19;4.55;;;1.85;;
15246;SDS011;7726;48.820;9.248;2022-10-16T03:35:50;3.17;;;2.08;;
15246;SDS011;7726;48.820;9.248;2022-10-16T03:38:18;6.45;;;2.58;;
15246;SDS011;7726;48.820;9.248;2022-10-16T03:40:45;2.83;;;2.13;;
15246;SDS011;7726;48.820;9.248;2022-10-16T03:43:13;4.18;;;1.98;;
15246;SDS011;7726;48.820;9.248;2022-10-16T03:45:40;5.15;;;2.35;;
15246;SDS011;7726;48.820;9.248;2022-10-16T03:48:07;4.80;;;2.83;;
15246;SDS011;7726;48.820;9.248;2022-10-16T03:50:35;4.60;;;2.35;;
15246;SDS011;7726;48.820;9.248;2022-10-16T03:53:02;2.45;;;1.90;;
15246;SDS011;7726;48.820;9.248;2022-10-16T03:55:29;4.55;;;1.80;;
15246;SDS011;7726;48.820;9.248;2022-10-16T03:57:56;3.22;;;1.67;;
15246;SDS011;7726;48.820;9.248;2022-10-16T04:00:24;3.88;;;1.70;;
15246;SDS011;7726;48.820;9.248;2022-10-16T04:02:52;5.70;;;1.90;;
15246;SDS011;7726;48.820;9.248;2022-10-16T04:05:19;2.08;;;1.77;;
15246;SDS011;7726;48.820;9.248;2022-10-16T04:07:46;6.55;;;2.00;;
15246;SDS011;7726;48.820;9.248;2022-10-16T04:10:13;3.40;;;2.13;;
15246;SDS011;7726;48.820;9.248;2022-10-16T04:12:40;3.85;;;1.90;;
15246;SDS011;7726;48.820;9.248;2022-10-16T04:15:07;3.10;;;2.30;;
15246;SDS011;7726;48.820;9.248;2022-10-16T04:17:36;2.65;;;2.47;;
15246;SDS011;7726;48.820;9.248;2022-10-16T04:20:03;4.80;;;3.20;;
15246;SDS011;7726;48.820;9.248;2022-10-16T04:22:31;2.28;;;2.08;;
15246;SDS011;7726;48.820;9.248;2022-10-16T04:24:58;1.98;;;1.85;;
15246;SDS011;7726;48.820;9.248;2022-10-16T04:27:25;3.20;;;1.60;;
15246;SDS011;7726;48.820;9.248;2022-10-16T04:29:53;1.80;;;1.70;;
15246;SDS011;7726;48.820;9.248;2022-10-16T04:32:20;1.55;;;1.45;;
15246;SDS011;7726;48.820;9.248;2022-10-16T04:34:48;2.40;;;1.20;;
15246;SDS011;7726;48.820;9.248;2022-10-16T04:37:16;1.73;;;1.20;;
15246;SDS011;7726;48.820;9.248;2022-10-16T04:39:43;2.10;;;1.10;;
15246;SDS011;7726;48.820;9.248;2022-10-16T04:42:10;4.47;;;1.20;;
15246;SDS011;7726;48.820;9.248;2022-10-16T04:44:37;3.15;;;1.25;;
15246;SDS011;7726;48.820;9.248;2022-10-16T04:47:04;2.00;;;1.00;;
15246;SDS011;7726;48.820;9.248;2022-10-16T04:49:31;5.13;;;1.10;;
15246;SDS011;7726;48.820;9.248;2022-10-16T04:52:00;1.25;;;1.23;;
15246;SDS011;7726;48.820;9.248;2022-10-16T04:54:27;1.00;;;1.00;;
15246;SDS011;7726;48.820;9.248;2022-10-16T04:56:54;1.48;;;1.35;;
15246;SDS011;7726;48.820;9.248;2022-10-16T04:59:21;3.38;;;1.42;;
15246;SDS011;7726;48.820;9.248;2022-10-16T05:01:48;2.25;;;1.50;;
15246;SDS011;7726;48.820;9.248;2022-10-16T05:04:16;2.80;;;1.58;;
15246;SDS011;7726;48.820;9.248;2022-10-16T05:06:43;3.88;;;1.60;;
15246;SDS011;7726;48.820;9.248;2022-10-16T05:09:11;1.98;;;1.70;;
15246;SDS011;7726;48.820;9.248;2022-10-16T05:11:39;4.80;;;1.67;;
15246;SDS011;7726;48.820;9.248;2022-10-16T05:14:06;3.90;;;1.73;;
15246;SDS011;7726;48.820;9.248;2022-10-16T05:16:33;2.63;;;1.67;;
15246;SDS011;7726;48.820;9.248;2022-10-16T05:19:00;1.63;;;1.52;;
15246;SDS011;7726;48.820;9.248;2022-10-16T05:21:27;1.77;;;1.50;;
15246;SDS011;7726;48.820;9.248;2022-10-16T05:23:54;1.42;;;1.17;;
15246;SDS011;7726;48.820;9.248;2022-10-16T05:26:23;1.50;;;1.40;;
15246;SDS011;7726;48.820;9.248;2022-10-16T05:28:50;1.85;;;1.50;;
15246;SDS011;7726;48.820;9.248;2022-10-16T05:31:17;2.40;;;1.58;;
15246;SDS011;7726;48.820;9.248;2022-10-16T05:33:44;4.28;;;1.70;;
15246;SDS011;7726;48.820;9.248;2022-10-16T05:36:11;1.85;;;1.55;;
15246;SDS011;7726;48.820;9.248;2022-10-16T05:38:38;1.70;;;1.60;;
15246;SDS011;7726;48.820;9.248;2022-10-16T05:41:06;1.45;;;1.35;;
15246;SDS011;7726;48.820;9.248;2022-10-16T05:43:34;3.45;;;1.58;;
15246;SDS011;7726;48.820;9.248;2022-10-16T05:46:02;2.65;;;1.50;;
15246;SDS011;7726;48.820;9.248;2022-10-16T05:48:30;3.33;;;1.40;;
15246;SDS011;7726;48.820;9.248;2022-10-16T05:50:58;2.45;;;1.30;;
15246;SDS011;7726;48.820;9.248;2022-10-16T05:53:26;1.65;;;1.50;;
15246;SDS011;7726;48.820;9.248;2022-10-16T05:55:54;2.22;;;1.40;;
15246;SDS011;7726;48.820;9.248;2022-10-16T05:58:21;3.47;;;1.35;;
15246;SDS011;7726;48.820;9.248;2022-10-16T06:01:00;2.33;;;1.40;;
15246;SDS011;7726;48.820;9.248;2022-10-16T06:03:27;2.83;;;1.42;;
15246;SDS011;7726;48.820;9.248;2022-10-16T06:05:55;1.65;;;1.33;;
15246;SDS011;7726;48.820;9.248;2022-10-16T06:08:22;2.65;;;1.80;;
15246;SDS011;7726;48.820;9.248;2022-10-16T06:10:57;2.88;;;1.50;;
15246;SDS011;7726;48.820;9.248;2022-10-16T06:13:26;1.60;;;1.50;;
15246;SDS011;7726;48.820;9.248;2022-10-16T06:15:56;3.90;;;2.47;;
15246;SDS011;7726;48.820;9.248;2022-10-16T06:18:25;3.92;;;1.40;;
15246;SDS011;7726;48.820;9.248;2022-10-16T06:20:52;7.55;;;2.03;;
15246;SDS011;7726;48.820;9.248;2022-10-16T06:23:19;4.97;;;1.70;;
15246;SDS011;7726;48.820;9.248;2022-10-16T06:25:46;2.85;;;2.10;;
15246;SDS011;7726;48.820;9.248;2022-10-16T06:28:13;4.22;;;1.98;;
15246;SDS011;7726;48.820;9.248;2022-10-16T06:30:41;4.05;;;1.80;;
15246;SDS011;7726;48.820;9.248;2022-10-16T06:33:08;4.68;;;1.67;;
15246;SDS011;7726;48.820;9.248;2022-10-16T06:35:37;3.67;;;1.70;;
15246;SDS011;7726;48.820;9.248;2022-10-16T06:38:04;2.63;;;2.00;;
15246;SDS011;7726;48.820;9.248;2022-10-16T06:40:31;3.05;;;1.35;;
15246;SDS011;7726;48.820;9.248;2022-10-16T06:42:58;3.85;;;1.63;;
15246;SDS011;7726;48.820;9.248;2022-10-16T06:45:25;3.17;;;1.35;;
15246;SDS011;7726;48.820;9.248;2022-10-16T06:47:52;9.10;;;1.50;;
15246;SDS011;7726;48.820;9.248;2022-10-16T06:50:20;4.20;;;1.70;;
15246;SDS011;7726;48.820;9.248;2022-10-16T06:52:48;4.10;;;1.67;;
15246;SDS011;7726;48.820;9.248;2022-10-16T06:55:15;1.35;;;1.25;;
15246;SDS011;7726;48.820;9.248;2022-10-16T06:57:43;2.95;;;1.50;;
15246;SDS011;7726;48.820;9.248;2022-10-16T07:00:10;2.28;;;1.40;;
15246;SDS011;7726;48.820;9.248;2022-10-16T07:02:37;4.93;;;1.60;;
15246;SDS011;7726;48.820;9.248;2022-10-16T07:05:05;2.30;;;1.60;;
15246;SDS011;7726;48.820;9.248;2022-10-16T07:07:32;6.88;;;1.70;;
15246;SDS011;7726;48.820;9.248;2022-10-16T07:10:00;1.40;;;1.30;;
15246;SDS011;7726;48.820;9.248;2022-10-16T07:12:27;3.25;;;1.80;;
15246;SDS011;7726;48.820;9.248;2022-10-16T07:14:55;2.47;;;1.63;;
15246;SDS011;7726;48.820;9.248;2022-10-16T07:17:22;3.25;;;1.70;;
15246;SDS011;7726;48.820;9.248;2022-10-16T07:19:49;5.20;;;2.25;;
15246;SDS011;7726;48.820;9.248;2022-10-16T07:22:18;3.08;;;1.83;;
15246;SDS011;7726;48.820;9.248;2022-10-16T07:24:45;4.65;;;1.80;;
15246;SDS011;7726;48.820;9.248;2022-10-16T07:27:14;1.75;;;1.42;;
15246;SDS011;7726;48.820;9.248;2022-10-16T07:29:41;2.10;;;1.58;;
15246;SDS011;7726;48.820;9.248;2022-10-16T07:32:08;2.35;;;1.73;;
15246;SDS011;7726;48.820;9.248;2022-10-16T07:34:35;4.70;;;1.85;;
15246;SDS011;7726;48.820;9.248;2022-10-16T07:37:03;2.97;;;1.70;;
15246;SDS011;7726;48.820;9.248;2022-10-16T07:39:30;3.75;;;2.00;;
15246;SDS011;7726;48.820;9.248;2022-10-16T07:41:57;2.25;;;1.77;;
15246;SDS011;7726;48.820;9.248;2022-10-16T07:44:25;2.53;;;1.40;;
15246;SDS011;7726;48.820;9.248;2022-10-16T07:46:52;1.88;;;1.75;;
15246;SDS011;7726;48.820;9.248;2022-10-16T07:49:20;4.00;;;1.52;;
15246;SDS011;7726;48.820;9.248;2022-10-16T07:51:47;1.65;;;1.50;;
15246;SDS011;7726;48.820;9.248;2022-10-16T07:54:14;3.78;;;1.50;;
15246;SDS011;7726;48.820;9.248;2022-10-16T07:56:41;2.28;;;1.73;;
15246;SDS011;7726;48.820;9.248;2022-10-16T07:59:08;3.05;;;1.50;;
15246;SDS011;7726;48.820;9.248;2022-10-16T08:01:37;3.28;;;1.85;;
15246;SDS011;7726;48.820;9.248;2022-10-16T08:04:04;2.92;;;1.60;;
15246;SDS011;7726;48.820;9.248;2022-10-16T08:06:34;4.20;;;1.90;;
15246;SDS011;7726;48.820;9.248;2022-10-16T08:09:01;5.45;;;2.58;;
15246;SDS011;7726;48.820;9.248;2022-10-16T08:11:29;2.65;;;2.45;;
15246;SDS011;7726;48.820;9.248;2022-10-16T08:13:56;2.72;;;1.98;;
15246;SDS011;7726;48.820;9.248;2022-10-16T08:16:23;1.45;;;1.35;;
15246;SDS011;7726;48.820;9.248;2022-10-16T08:18:51;2.33;;;1.58;;
15246;SDS011;7726;48.820;9.248;2022-10-16T08:21:19;2.65;;;1.30;;
15246;SDS011;7726;48.820;9.248;2022-10-16T08:23:48;1.88;;;1.30;;
15246;SDS011;7726;48.820;9.248;2022-10-16T08:26:15;2.25;;;2.05;;
15246;SDS011;7726;48.820;9.248;2022-10-16T08:28:42;2.45;;;1.30;;
15246;SDS011;7726;48.820;9.248;2022-10-16T08:31:10;2.47;;;1.27;;
15246;SDS011;7726;48.820;9.248;2022-10-16T08:33:38;1.23;;;1.10;;
15246;SDS011;7726;48.820;9.248;2022-10-16T08:36:06;3.92;;;1.35;;
15246;SDS011;7726;48.820;9.248;2022-10-16T08:38:34;3.00;;;1.13;;
15246;SDS011;7726;48.820;9.248;2022-10-16T08:41:15;1.58;;;1.15;;
15246;SDS011;7726;48.820;9.248;2022-10-16T08:46:29;1.08;;;0.90;;
15246;SDS011;7726;48.820;9.248;2022-10-16T08:49:01;0.90;;;0.90;;
15246;SDS011;7726;48.820;9.248;2022-10-16T08:51:32;3.63;;;1.70;;
15246;SDS011;7726;48.820;9.248;2022-10-16T08:54:01;3.83;;;3.00;;
15246;SDS011;7726;48.820;9.248;2022-10-16T08:56:29;2.53;;;1.60;;
15246;SDS011;7726;48.820;9.248;2022-10-16T08:58:58;1.33;;;1.20;;
15246;SDS011;7726;48.820;9.248;2022-10-16T09:01:29;1.70;;;1.20;;
15246;SDS011;7726;48.820;9.248;2022-10-16T09:06:52;3.53;;;1.30;;
15246;SDS011;7726;48.820;9.248;2022-10-16T09:09:25;2.47;;;1.58;;
15246;SDS011;7726;48.820;9.248;2022-10-16T09:11:56;4.68;;;1.90;;
15246;SDS011;7726;48.820;9.248;2022-10-16T09:14:33;2.45;;;1.30;;
15246;SDS011;7726;48.820;9.248;2022-10-16T09:17:04;1.65;;;1.05;;
15246;SDS011;7726;48.820;9.248;2022-10-16T09:19:35;1.30;;;1.20;;
15246;SDS011;7726;48.820;9.248;2022-10-16T09:22:09;1.92;;;1.55;;
15246;SDS011;7726;48.820;9.248;2022-10-16T09:24:36;1.13;;;1.13;;
15246;SDS011;7726;48.820;9.248;2022-10-16T09:27:03;2.10;;;1.40;;
15246;SDS011;7726;48.820;9.248;2022-10-16T09:29:31;1.85;;;1.75;;
15246;SDS011;7726;48.820;9.248;2022-10-16T09:31:58;2.05;;;1.30;;
15246;SDS011;7726;48.820;9.248;2022-10-16T09:34:35;3.67;;;1.60;;
15246;SDS011;7726;48.820;9.248;2022-10-16T09:37:04;1.88;;;1.27;;
15246;SDS011;7726;48.820;9.248;2022-10-16T09:39:44;1.40;;;1.30;;
15246;SDS011;7726;48.820;9.248;2022-10-16T09:42:13;2.35;;;1.30;;
15246;SDS011;7726;48.820;9.248;2022-10-16T09:44:41;2.45;;;1.20;;
15246;SDS011;7726;48.820;9.248;2022-10-16T09:47:12;2.45;;;1.40;;
15246;SDS011;7726;48.820;9.248;2022-10-16T09:49:49;3.35;;;1.38;;
15246;SDS011;7726;48.820;9.248;2022-10-16T09:52:18;4.03;;;1.50;;
15246;SDS011;7726;48.820;9.248;2022-10-16T09:54:50;1.30;;;1.20;;
15246;SDS011;7726;48.820;9.248;2022-10-16T09:57:18;2.55;;;1.30;;
15246;SDS011;7726;48.820;9.248;2022-10-16T09:59:46;4.80;;;1.50;;
15246;SDS011;7726;48.820;9.248;2022-10-16T10:02:14;1.55;;;1.20;;
15246;SDS011;7726;48.820;9.248;2022-10-16T10:04:48;1.42;;;1.10;;
15246;SDS011;7726;48.820;9.248;2022-10-16T10:07:20;1.85;;;1.30;;
15246;SDS011;7726;48.820;9.248;2022-10-16T10:09:51;1.60;;;1.50;;
15246;SDS011;7726;48.820;9.248;2022-10-16T10:12:19;5.47;;;1.65;;
15246;SDS011;7726;48.820;9.248;2022-10-16T10:14:48;2.03;;;1.30;;
15246;SDS011;7726;48.820;9.248;2022-10-16T10:17:16;3.40;;;1.70;;
15246;SDS011;7726;48.820;9.248;2022-10-16T10:19:48;3.45;;;1.58;;
15246;SDS011;7726;48.820;9.248;2022-10-16T10:22:16;1.33;;;1.23;;
15246;SDS011;7726;48.820;9.248;2022-10-16T10:24:44;5.53;;;1.25;;
15246;SDS011;7726;48.820;9.248;2022-10-16T10:27:13;1.10;;;1.10;;
15246;SDS011;7726;48.820;9.248;2022-10-16T10:29:45;1.95;;;1.38;;
15246;SDS011;7726;48.820;9.248;2022-10-16T10:32:17;2.60;;;1.60;;
15246;SDS011;7726;48.820;9.248;2022-10-16T10:34:50;2.08;;;1.23;;
15246;SDS011;7726;48.820;9.248;2022-10-16T10:37:33;2.20;;;1.58;;
15246;SDS011;7726;48.820;9.248;2022-10-16T10:40:04;2.58;;;1.67;;
15246;SDS011;7726;48.820;9.248;2022-10-16T10:42:37;3.22;;;1.80;;
15246;SDS011;7726;48.820;9.248;2022-10-16T10:45:11;2.10;;;1.50;;
15246;SDS011;7726;48.820;9.248;2022-10-16T10:47:46;2.80;;;1.05;;
15246;SDS011;7726;48.820;9.248;2022-10-16T10:50:18;1.77;;;1.10;;
15246;SDS011;7726;48.820;9.248;2022-10-16T10:52:53;3.40;;;1.40;;
15246;SDS011;7726;48.820;9.248;2022-10-16T10:55:26;1.75;;;1.50;;
15246;SDS011;7726;48.820;9.248;2022-10-16T10:58:00;2.85;;;1.50;;
15246;SDS011;7726;48.820;9.248;2022-10-16T11:00:31;2.45;;;1.40;;
15246;SDS011;7726;48.820;9.248;2022-10-16T11:03:04;1.40;;;1.30;;
15246;SDS011;7726;48.820;9.248;2022-10-16T11:05:40;1.67;;;1.20;;
15246;SDS011;7726;48.820;9.248;2022-10-16T11:08:09;3.85;;;1.60;;
15246;SDS011;7726;48.820;9.248;2022-10-16T11:10:48;1.42;;;1.33;;
15246;SDS011;7726;48.820;9.248;2022-10-16T11:13:23;10.60;;;3.63;;
15246;SDS011;7726;48.820;9.248;2022-10-16T11:15:52;2.15;;;1.70;;
15246;SDS011;7726;48.820;9.248;2022-10-16T11:18:21;3.00;;;1.90;;
15246;SDS011;7726;48.820;9.248;2022-10-16T11:20:50;5.07;;;1.33;;
15246;SDS011;7726;48.820;9.248;2022-10-16T11:23:21;3.10;;;1.20;;
15246;SDS011;7726;48.820;9.248;2022-10-16T11:25:50;2.17;;;1.45;;
15246;SDS011;7726;48.820;9.248;2022-10-16T11:28:18;3.28;;;1.38;;
15246;SDS011;7726;48.820;9.248;2022-10-16T11:30:50;1.50;;;1.35;;
15246;SDS011;7726;48.820;9.248;2022-10-16T11:33:23;2.72;;;1.23;;
15246;SDS011;7726;48.820;9.248;2022-10-16T11:35:53;1.40;;;1.30;;
15246;SDS011;7726;48.820;9.248;2022-10-16T11:38:24;2.10;;;1.70;;
15246;SDS011;7726;48.820;9.248;2022-10-16T11:40:53;1.40;;;1.30;;
15246;SDS011;7726;48.820;9.248;2022-10-16T11:43:24;3.22;;;1.55;;
15246;SDS011;7726;48.820;9.248;2022-10-16T11:45:54;4.57;;;1.50;;
15246;SDS011;7726;48.820;9.248;2022-10-16T11:48:24;4.53;;;1.83;;
15246;SDS011;7726;48.820;9.248;2022-10-16T11:50:54;2.67;;;1.40;;
15246;SDS011;7726;48.820;9.248;2022-10-16T11:53:24;2.00;;;1.38;;
15246;SDS011;7726;48.820;9.248;2022-10-16T11:55:57;4.72;;;1.85;;
15246;SDS011;7726;48.820;9.248;2022-10-16T11:58:26;2.58;;;1.30;;
15246;SDS011;7726;48.820;9.248;2022-10-16T12:00:59;2.20;;;1.30;;
15246;SDS011;7726;48.820;9.248;2022-10-16T12:03:30;1.20;;;1.10;;
15246;SDS011;7726;48.820;9.248;2022-10-16T12:06:06;2.08;;;1.58;;
15246;SDS011;7726;48.820;9.248;2022-10-16T12:08:38;2.13;;;1.20;;
15246;SDS011;7726;48.820;9.248;2022-10-16T12:11:06;2.67;;;1.30;;
15246;SDS011;7726;48.820;9.248;2022-10-16T12:13:34;2.85;;;1.20;;
15246;SDS011;7726;48.820;9.248;2022-10-16T12:16:24;1.95;;;1.27;;
15246;SDS011;7726;48.820;9.248;2022-10-16T12:19:02;2.08;;;1.30;;
15246;SDS011;7726;48.820;9.248;2022-10-16T12:21:30;1.80;;;1.23;;
15246;SDS011;7726;48.820;9.248;2022-10-16T12:23:58;3.05;;;1.20;;
15246;SDS011;7726;48.820;9.248;2022-10-16T12:26:26;1.10;;;1.10;;
15246;SDS011;7726;48.820;9.248;2022-10-16T12:28:53;3.03;;;1.25;;
15246;SDS011;7726;48.820;9.248;2022-10-16T12:31:21;1.33;;;1.13;;
15246;SDS011;7726;48.820;9.248;2022-10-16T12:33:56;1.70;;;1.10;;
15246;SDS011;7726;48.820;9.248;2022-10-16T12:36:27;2.08;;;1.00;;
15246;SDS011;7726;48.820;9.248;2022-10-16T12:38:54;3.15;;;1.20;;
15246;SDS011;7726;48.820;9.248;2022-10-16T12:41:25;1.85;;;1.30;;
15246;SDS011;7726;48.820;9.248;2022-10-16T12:43:53;3.90;;;1.10;;
15246;SDS011;7726;48.820;9.248;2022-10-16T12:46:22;2.17;;;1.25;;
15246;SDS011;7726;48.820;9.248;2022-10-16T12:48:50;1.40;;;1.30;;
15246;SDS011;7726;48.820;9.248;2022-10-16T12:51:33;1.95;;;1.20;;
15246;SDS011;7726;48.820;9.248;2022-10-16T12:54:02;1.73;;;1.63;;
15246;SDS011;7726;48.820;9.248;2022-10-16T12:56:33;2.15;;;1.80;;
15246;SDS011;7726;48.820;9.248;2022-10-16T12:59:04;2.53;;;1.13;;
15246;SDS011;7726;48.820;9.248;2022-10-16T13:01:36;1.98;;;1.23;;
15246;SDS011;7726;48.820;9.248;2022-10-16T13:04:15;1.10;;;1.10;;
15246;SDS011;7726;48.820;9.248;2022-10-16T13:06:50;1.35;;;1.25;;
15246;SDS011;7726;48.820;9.248;2022-10-16T13:09:31;2.38;;;1.20;;
15246;SDS011;7726;48.820;9.248;2022-10-16T13:12:07;2.50;;;1.38;;
15246;SDS011;7726;48.820;9.248;2022-10-16T13:14:45;2.88;;;1.27;;
15246;SDS011;7726;48.820;9.248;2022-10-16T13:17:16;2.45;;;1.30;;
15246;SDS011;7726;48.820;9.248;2022-10-16T13:19:52;2.97;;;1.15;;
15246;SDS011;7726;48.820;9.248;2022-10-16T13:22:23;1.30;;;1.10;;
15246;SDS011;7726;48.820;9.248;2022-10-16T13:24:58;1.52;;;1.20;;
15246;SDS011;7726;48.820;9.248;2022-10-16T13:27:31;3.17;;;1.30;;
15246;SDS011;7726;48.820;9.248;2022-10-16T13:30:02;1.88;;;1.10;;
15246;SDS011;7726;48.820;9.248;2022-10-16T13:32:36;2.42;;;1.23;;
15246;SDS011;7726;48.820;9.248;2022-10-16T13:35:03;2.50;;;1.15;;
15246;SDS011;7726;48.820;9.248;2022-10-16T13:37:46;1.40;;;1.30;;
15246;SDS011;7726;48.820;9.248;2022-10-16T13:40:18;1.90;;;1.25;;
15246;SDS011;7726;48.820;9.248;2022-10-16T13:42:45;1.27;;;1.17;;
15246;SDS011;7726;48.820;9.248;2022-10-16T13:45:19;3.65;;;1.20;;
15246;SDS011;7726;48.820;9.248;2022-10-16T13:47:46;2.25;;;1.10;;
15246;SDS011;7726;48.820;9.248;2022-10-16T13:50:14;2.05;;;1.48;;
15246;SDS011;7726;48.820;9.248;2022-10-16T13:52:42;2.90;;;1.42;;
15246;SDS011;7726;48.820;9.248;2022-10-16T13:55:14;1.00;;;1.00;;
15246;SDS011;7726;48.820;9.248;2022-10-16T13:57:42;2.20;;;1.10;;
15246;SDS011;7726;48.820;9.248;2022-10-16T14:00:19;2.10;;;1.50;;
15246;SDS011;7726;48.820;9.248;2022-10-16T14:02:49;3.70;;;1.30;;
15246;SDS011;7726;48.820;9.248;2022-10-16T14:05:17;2.80;;;1.38;;
15246;SDS011;7726;48.820;9.248;2022-10-16T14:07:47;4.00;;;1.25;;
15246;SDS011;7726;48.820;9.248;2022-10-16T14:10:20;3.65;;;1.35;;
15246;SDS011;7726;48.820;9.248;2022-10-16T14:12:54;1.80;;;1.30;;
15246;SDS011;7726;48.820;9.248;2022-10-16T14:15:21;1.20;;;1.10;;
15246;SDS011;7726;48.820;9.248;2022-10-16T14:17:49;1.35;;;1.20;;
15246;SDS011;7726;48.820;9.248;2022-10-16T14:20:17;1.83;;;1.10;;
15246;SDS011;7726;48.820;9.248;2022-10-16T14:22:44;2.78;;;1.20;;
15246;SDS011;7726;48.820;9.248;2022-10-16T14:25:26;1.98;;;1.50;;
15246;SDS011;7726;48.820;9.248;2022-10-16T14:27:57;2.80;;;1.27;;
15246;SDS011;7726;48.820;9.248;2022-10-16T14:30:24;3.22;;;1.30;;
15246;SDS011;7726;48.820;9.248;2022-10-16T14:32:55;2.42;;;1.35;;
15246;SDS011;7726;48.820;9.248;2022-10-16T14:35:23;1.45;;;1.20;;
15246;SDS011;7726;48.820;9.248;2022-10-16T14:37:51;2.05;;;1.90;;
15246;SDS011;7726;48.820;9.248;2022-10-16T14:40:19;3.05;;;2.58;;
15246;SDS011;7726;48.820;9.248;2022-10-16T14:42:48;2.65;;;2.45;;
15246;SDS011;7726;48.820;9.248;2022-10-16T14:45:18;2.90;;;2.45;;
15246;SDS011;7726;48.820;9.248;2022-10-16T14:47:47;3.58;;;2.38;;
15246;SDS011;7726;48.820;9.248;2022-10-16T14:50:15;2.50;;;2.30;;
15246;SDS011;7726;48.820;9.248;2022-10-16T14:52:42;4.93;;;2.30;;
15246;SDS011;7726;48.820;9.248;2022-10-16T14:55:09;5.53;;;2.45;;
15246;SDS011;7726;48.820;9.248;2022-10-16T14:57:37;1.90;;;1.80;;
15246;SDS011;7726;48.820;9.248;2022-10-16T15:00:08;3.50;;;1.73;;
15246;SDS011;7726;48.820;9.248;2022-10-16T15:02:37;1.88;;;1.60;;
15246;SDS011;7726;48.820;9.248;2022-10-16T15:05:12;1.55;;;1.45;;
15246;SDS011;7726;48.820;9.248;2022-10-16T15:07:39;3.00;;;1.90;;
15246;SDS011;7726;48.820;9.248;2022-10-16T15:10:06;1.55;;;1.45;;
15246;SDS011;7726;48.820;9.248;2022-10-16T15:12:34;2.28;;;2.00;;
15246;SDS011;7726;48.820;9.248;2022-10-16T15:15:01;2.80;;;1.75;;
15246;SDS011;7726;48.820;9.248;2022-10-16T15:17:29;3.38;;;1.90;;
15246;SDS011;7726;48.820;9.248;2022-10-16T15:19:56;1.73;;;1.63;;
15246;SDS011;7726;48.820;9.248;2022-10-16T15:22:24;2.05;;;1.60;;